Flight Track Log - Related Links

Times and Time Zones

All times are in EDT time to prevent confusion due to time zone crossing. See the SLI2632 flight status page for this flight to view local times or setup timezone preferences in your user account.

Time Position Orientation Groundspeed Altitude Reporting Facility
EDT Latitude Longitude Course Direction KTS MPH feet Rate Location/Type
Sat 10:53:15 AM 19.4488 -99.0895 307° West  Level Estimated
Sat 10:54:15 AM 19.4987 -99.1590 307° West  Level Estimated
Sat 10:55:15 AM 19.5485 -99.2285 307° West  Level Estimated
Sat 10:56:15 AM 19.5984 -99.2980 307° West  Level Estimated
Sat 10:57:15 AM 19.6482 -99.3677 307° West  Level Estimated
Sat 10:58:15 AM 19.6980 -99.4373 307° West  Level Estimated
Sat 10:59:15 AM 19.7477 -99.5070 307° West  Level Estimated
Sat 11:00:15 AM 19.7975 -99.5768 307° West  Level Estimated
Sat 11:01:15 AM 19.8472 -99.6466 307° West  Level Estimated
Sat 11:02:15 AM 19.8969 -99.7164 307° West  Level Estimated
Sat 11:03:15 AM 19.9465 -99.7862 307° West  Level Estimated
Sat 11:04:15 AM 19.9961 -99.8562 307° West  Level Estimated
Sat 11:05:15 AM 20.0457 -99.9261 307° West  Level Estimated
Sat 11:06:15 AM 20.0953 -99.9961 307° West  Level Estimated
Sat 11:07:15 AM 20.1448 -100.0662 307° West  Level Estimated
Sat 11:08:15 AM 20.1943 -100.1363 307° West  Level Estimated
Sat 11:09:15 AM 20.2438 -100.2064 307° West  Level Estimated
Sat 11:10:15 AM 20.2933 -100.2766 307° West  Level Estimated
Sat 11:11:15 AM 20.3427 -100.3468 307° West  Level Estimated
Sat 11:12:15 AM 20.3921 -100.4171 307° West  Level Estimated
Sat 11:13:15 AM 20.4415 -100.4874 307° West  Level Estimated
Sat 11:14:15 AM 20.4909 -100.5578 307° West  Level Estimated
Sat 11:15:15 AM 20.5402 -100.6282 307° West  Level Estimated
Sat 11:16:15 AM 20.5895 -100.6986 307° West  Level Estimated
Sat 11:17:15 AM 20.6387 -100.7691 307° West  Level Estimated
Sat 11:18:15 AM 20.6880 -100.8397 307° West  Level Estimated
Sat 11:19:15 AM 20.7372 -100.9103 307° West  Level Estimated
Sat 11:20:15 AM 20.7863 -100.9809 307° West  Level Estimated
Sat 11:21:15 AM 20.8355 -101.0516 307° West  Level Estimated
Sat 11:22:15 AM 20.8846 -101.1223 307° West  Level Estimated
Sat 11:23:15 AM 20.9337 -101.1931 307° West  Level Estimated
Sat 11:24:15 AM 20.9827 -101.2639 307° West  Level Estimated
Sat 11:25:15 AM 21.0318 -101.3348 307° West  Level Estimated
Sat 11:26:15 AM 21.0808 -101.4057 307° West  Level Estimated
Sat 11:27:15 AM 21.1297 -101.4767 306° West  Level Estimated
Sat 11:28:15 AM 21.1787 -101.5477 306° West  Level Estimated
Sat 11:29:15 AM 21.2276 -101.6188 306° West  Level Estimated
Sat 11:30:15 AM 21.2765 -101.6899 306° West  Level Estimated
Sat 11:31:15 AM 21.3253 -101.7610 306° West  Level Estimated
Sat 11:32:15 AM 21.3741 -101.8322 306° West  Level Estimated
Sat 11:33:15 AM 21.4229 -101.9035 306° West  Level Estimated
Sat 11:34:15 AM 21.4717 -101.9747 306° West  Level Estimated
Sat 11:35:15 AM 21.5204 -102.0461 306° West  Level Estimated
Sat 11:36:15 AM 21.5691 -102.1175 306° West  Level Estimated
Sat 11:37:15 AM 21.6178 -102.1889 306° West  Level Estimated
Sat 11:38:15 AM 21.6664 -102.2604 306° West  Level Estimated

Login

Don't have an account? Register now (free) for customized features, flight alerts, and more!